Time;durP1;ratioP1;P1;durP2;ratioP2;P2;SDS_P1;SDS_P2;PMS_P1;PMS_P2;Temp;Humidity;BMP_temperature;BMP_pressure;BME280_temperature;BME280_humidity;BME280_pressure;Samples;Min_cycle;Max_cycle;Signal;HPM_P1;HPM_P2
2021/08/04 00:01:51;;;;;;;3.40;2.88;;;19.00;99.90;;;;;;5090448;28;20672;-77
2021/08/04 00:04:18;;;;;;;3.85;3.45;;;19.10;99.90;;;;;;5090209;28;20274;-77
2021/08/04 00:06:45;;;;;;;4.75;3.40;;;19.10;99.90;;;;;;5090518;28;20211;-78
2021/08/04 00:09:13;;;;;;;4.13;3.72;;;19.10;99.90;;;;;;5091100;28;20259;-78
2021/08/04 00:11:40;;;;;;;4.20;3.75;;;19.10;99.90;;;;;;5090524;28;20209;-77
2021/08/04 00:14:08;;;;;;;5.95;3.90;;;19.10;99.90;;;;;;5090294;28;20213;-79
2021/08/04 00:16:35;;;;;;;4.68;4.28;;;19.10;99.90;;;;;;5084188;28;20616;-82
2021/08/04 00:19:02;;;;;;;3.75;3.45;;;19.00;99.90;;;;;;5082560;28;20209;-81
2021/08/04 00:21:30;;;;;;;3.67;3.15;;;19.00;99.90;;;;;;5089903;28;20749;-79
2021/08/04 00:23:57;;;;;;;4.00;3.60;;;19.00;99.90;;;;;;5090413;28;20202;-77
2021/08/04 00:26:26;;;;;;;4.30;3.92;;;18.90;99.90;;;;;;5090161;28;20255;-77
2021/08/04 00:28:53;;;;;;;4.13;3.30;;;18.90;99.90;;;;;;5090589;28;20279;-80
2021/08/04 00:31:20;;;;;;;4.22;3.28;;;18.90;99.90;;;;;;5089568;28;20625;-76
2021/08/04 00:33:47;;;;;;;4.03;3.63;;;18.90;99.90;;;;;;5090478;28;20228;-79
2021/08/04 00:36:14;;;;;;;4.18;3.58;;;18.90;99.90;;;;;;5079623;28;20260;-79
2021/08/04 00:38:41;;;;;;;5.80;3.50;;;18.90;99.90;;;;;;5086190;28;20661;-80
2021/08/04 00:41:08;;;;;;;5.32;3.88;;;19.00;99.90;;;;;;5090240;28;20282;-79
2021/08/04 00:43:36;;;;;;;4.45;3.65;;;19.00;99.90;;;;;;5090233;28;20254;-79
2021/08/04 00:46:03;;;;;;;3.75;3.45;;;19.00;99.90;;;;;;5090105;28;20202;-78
2021/08/04 00:48:31;;;;;;;4.57;3.85;;;19.00;99.90;;;;;;5089962;28;20275;-79
2021/08/04 00:50:58;;;;;;;5.20;4.68;;;19.00;99.90;;;;;;5089881;28;20271;-76
2021/08/04 00:53:27;;;;;;;4.40;4.00;;;19.00;99.90;;;;;;5090556;28;20247;-76
2021/08/04 00:55:56;;;;;;;6.15;4.30;;;18.90;99.90;;;;;;5090122;28;20684;-76
2021/08/04 00:58:30;;;;;;;5.57;3.65;;;18.80;99.90;;;;;;5090149;28;20225;-75
2021/08/04 01:01:04;;;;;;;4.25;3.88;;;18.80;99.90;;;;;;5090096;28;20200;-75
2021/08/04 01:03:39;;;;;;;6.22;3.85;;;18.80;99.90;;;;;;5089866;28;20209;-75
2021/08/04 01:06:12;;;;;;;4.57;4.13;;;18.80;99.90;;;;;;5092919;28;20687;-79
2021/08/04 01:08:43;;;;;;;3.97;3.58;;;18.80;99.90;;;;;;5093768;28;20237;-79
2021/08/04 01:11:12;;;;;;;4.85;4.45;;;18.90;99.90;;;;;;5088786;28;20256;-76
2021/08/04 01:13:45;;;;;;;4.75;4.32;;;18.90;99.90;;;;;;5086683;28;20624;-75
2021/08/04 01:16:18;;;;;;;4.95;3.97;;;18.80;99.90;;;;;;5081849;28;20610;-79
2021/08/04 01:18:50;;;;;;;4.55;4.15;;;18.90;99.90;;;;;;5080384;28;20206;-76
2021/08/04 01:21:23;;;;;;;5.88;4.35;;;18.80;99.90;;;;;;5092572;28;20254;-74
2021/08/04 01:23:58;;;;;;;4.63;4.22;;;18.80;99.90;;;;;;5093261;28;20243;-79
2021/08/04 01:26:36;;;;;;;5.07;3.67;;;18.80;99.90;;;;;;5093398;28;20668;-75
2021/08/04 01:29:03;;;;;;;5.53;4.63;;;18.80;99.90;;;;;;5093031;28;20305;-79
2021/08/04 01:31:33;;;;;;;7.03;5.68;;;18.90;99.90;;;;;;5093485;28;20205;-81
2021/08/04 01:34:01;;;;;;;5.53;4.60;;;18.90;99.90;;;;;;5092487;28;20213;-79
2021/08/04 01:36:28;;;;;;;4.65;4.25;;;18.90;99.90;;;;;;5093268;28;20274;-79
2021/08/04 01:38:58;;;;;;;5.30;4.72;;;18.90;99.90;;;;;;5093213;28;20255;-75
2021/08/04 01:41:25;;;;;;;5.95;4.18;;;19.00;99.90;;;;;;5093157;28;20610;-78
2021/08/04 01:43:54;;;;;;;8.40;4.80;;;18.90;99.90;;;;;;5093213;28;20266;-77
2021/08/04 01:46:23;;;;;;;4.97;4.47;;;18.90;99.90;;;;;;5092563;28;20745;-81
2021/08/04 01:48:52;;;;;;;6.95;4.97;;;19.00;99.90;;;;;;5092286;28;20777;-80
2021/08/04 01:51:20;;;;;;;6.03;5.35;;;18.90;99.90;;;;;;5092513;28;20258;-78
2021/08/04 01:53:47;;;;;;;7.45;5.43;;;18.90;99.90;;;;;;5092768;28;20263;-76
2021/08/04 01:56:15;;;;;;;5.85;5.18;;;18.90;99.90;;;;;;5091997;28;20237;-74
2021/08/04 01:58:43;;;;;;;6.85;5.78;;;18.90;99.90;;;;;;5092760;28;20296;-73
2021/08/04 02:01:12;;;;;;;6.53;5.90;;;18.80;99.90;;;;;;5092178;28;20205;-75
2021/08/04 02:03:39;;;;;;;8.93;5.93;;;18.60;99.90;;;;;;5092619;28;20263;-73
2021/08/04 02:06:12;;;;;;;6.47;5.85;;;18.60;99.90;;;;;;5092062;28;20266;-85
2021/08/04 02:08:44;;;;;;;5.97;5.50;;;18.60;99.90;;;;;;5092510;28;20272;-73
2021/08/04 02:11:16;;;;;;;5.90;5.40;;;18.40;99.90;;;;;;5092120;28;20209;-73
2021/08/04 02:13:51;;;;;;;5.28;4.78;;;18.40;99.90;;;;;;5092378;28;20262;-81
2021/08/04 02:16:27;;;;;;;5.40;4.90;;;18.30;99.90;;;;;;5091882;28;20255;-81
2021/08/04 02:19:04;;;;;;;6.15;5.47;;;18.40;99.90;;;;;;5092638;28;20202;-75
2021/08/04 02:21:34;;;;;;;5.80;4.70;;;18.30;99.90;;;;;;5092432;28;20209;-73
2021/08/04 02:24:02;;;;;;;5.75;5.13;;;18.30;99.90;;;;;;5092076;28;20237;-84
2021/08/04 02:26:32;;;;;;;5.38;4.88;;;18.40;99.90;;;;;;5092024;28;20206;-75
2021/08/04 02:29:00;;;;;;;5.07;4.55;;;18.20;99.90;;;;;;5091930;28;20213;-75
2021/08/04 02:31:29;;;;;;;5.50;5.00;;;18.30;99.90;;;;;;5091888;28;20210;-75
2021/08/04 02:33:57;;;;;;;6.30;5.18;;;18.40;99.90;;;;;;5092581;28;20661;-79
2021/08/04 02:36:24;;;;;;;5.10;4.60;;;18.40;99.90;;;;;;5092497;28;20205;-84
2021/08/04 02:38:51;;;;;;;5.70;5.20;;;18.40;99.90;;;;;;5091933;28;20659;-85
2021/08/04 02:41:18;;;;;;;10.85;5.03;;;18.30;99.90;;;;;;5091831;28;21092;-85
2021/08/04 02:43:45;;;;;;;5.75;5.25;;;18.40;99.90;;;;;;5091638;28;20201;-84
2021/08/04 02:46:12;;;;;;;6.53;5.95;;;18.40;99.90;;;;;;5091258;28;20725;-74
2021/08/04 02:48:41;;;;;;;5.22;4.72;;;18.40;99.90;;;;;;5091779;28;20274;-74
2021/08/04 02:51:11;;;;;;;6.07;4.85;;;18.30;99.90;;;;;;5091571;28;20282;-75
2021/08/04 02:53:38;;;;;;;9.23;5.57;;;18.30;99.90;;;;;;5091570;28;20198;-82
2021/08/04 02:56:06;;;;;;;6.95;5.47;;;18.30;99.90;;;;;;5091151;28;20230;-74
2021/08/04 02:58:37;;;;;;;6.22;5.45;;;18.20;99.90;;;;;;5092061;28;20274;-74
2021/08/04 03:01:05;;;;;;;9.43;6.43;;;18.30;99.90;;;;;;5091151;28;20205;-82
2021/08/04 03:03:32;;;;;;;6.85;6.22;;;18.30;99.90;;;;;;5091356;28;20205;-77
2021/08/04 03:06:01;;;;;;;7.40;5.90;;;18.20;99.90;;;;;;5090968;28;20210;-73
2021/08/04 03:08:28;;;;;;;6.22;5.03;;;18.30;99.90;;;;;;5091354;28;20229;-75
2021/08/04 03:10:55;;;;;;;7.25;5.93;;;18.40;99.90;;;;;;5091449;28;20205;-75
2021/08/04 03:13:22;;;;;;;9.73;6.97;;;18.30;99.90;;;;;;5091121;28;20209;-76
2021/08/04 03:15:49;;;;;;;7.10;6.07;;;18.30;99.90;;;;;;5090636;28;20250;-73
2021/08/04 03:18:16;;;;;;;5.68;5.20;;;18.30;99.90;;;;;;5090763;28;20259;-73
2021/08/04 03:20:43;;;;;;;6.30;5.55;;;18.30;99.90;;;;;;5091358;28;20213;-78
2021/08/04 03:23:11;;;;;;;5.90;5.38;;;18.30;99.90;;;;;;5090408;28;20673;-76
2021/08/04 03:25:38;;;;;;;6.13;5.18;;;18.20;99.90;;;;;;5091015;28;20266;-73
2021/08/04 03:28:06;;;;;;;7.20;5.40;;;18.20;99.90;;;;;;5089382;28;20708;-73
2021/08/04 03:30:33;;;;;;;8.63;6.10;;;18.20;99.90;;;;;;5090857;28;20628;-84
2021/08/04 03:33:00;;;;;;;9.57;6.28;;;18.20;99.90;;;;;;5090914;28;20202;-73
2021/08/04 03:35:27;;;;;;;8.15;5.85;;;18.20;99.90;;;;;;5090670;28;20231;-73
2021/08/04 03:37:54;;;;;;;6.28;5.68;;;18.30;99.90;;;;;;5090939;28;20648;-80
2021/08/04 03:40:22;;;;;;;8.00;5.97;;;18.20;99.90;;;;;;5090348;28;20239;-76
2021/08/04 03:42:49;;;;;;;7.15;6.45;;;18.30;99.90;;;;;;5069345;28;20205;-74
2021/08/04 03:45:16;;;;;;;6.40;5.80;;;18.30;99.90;;;;;;5084116;28;20211;-73
2021/08/04 03:47:43;;;;;;;6.75;6.03;;;18.30;99.90;;;;;;5071282;28;20731;-81
2021/08/04 03:50:11;;;;;;;5.57;4.95;;;18.40;99.90;;;;;;5070447;28;20259;-81
2021/08/04 03:52:42;;;;;;;6.22;5.63;;;18.30;99.90;;;;;;5071713;28;20210;-85
2021/08/04 03:55:10;;;;;;;7.35;5.78;;;18.30;99.90;;;;;;5072337;28;20206;-84
2021/08/04 03:57:38;;;;;;;7.03;6.32;;;18.30;99.90;;;;;;5072599;28;20256;-85
2021/08/04 04:00:07;;;;;;;7.00;5.20;;;18.30;99.90;;;;;;5072664;28;20206;-80
2021/08/04 04:02:34;;;;;;;5.95;5.28;;;18.30;99.90;;;;;;5074450;28;20206;-80
2021/08/04 04:05:01;;;;;;;6.15;5.45;;;18.40;99.90;;;;;;5072860;28;20267;-80
2021/08/04 04:07:28;;;;;;;7.30;5.75;;;18.40;99.90;;;;;;5077100;28;20205;-80
2021/08/04 04:09:55;;;;;;;8.38;6.22;;;18.50;99.90;;;;;;5074317;28;20260;-74
2021/08/04 04:12:22;;;;;;;6.38;5.72;;;18.40;99.90;;;;;;5078092;28;20250;-78
2021/08/04 04:14:50;;;;;;;8.27;6.95;;;18.40;99.90;;;;;;5074870;28;20206;-84
2021/08/04 04:17:17;;;;;;;6.40;5.47;;;18.40;99.90;;;;;;5074682;28;20674;-84
2021/08/04 04:19:44;;;;;;;7.18;6.47;;;18.40;99.90;;;;;;5077034;28;20352;-75
2021/08/04 04:22:11;;;;;;;7.70;6.80;;;18.40;99.90;;;;;;5082676;28;20202;-86
2021/08/04 04:24:38;;;;;;;7.70;6.28;;;18.40;99.90;;;;;;5071158;28;20251;-85
2021/08/04 04:27:06;;;;;;;6.43;5.78;;;18.40;99.90;;;;;;5056093;28;20213;-86
2021/08/04 04:29:32;;;;;;;8.02;6.35;;;18.40;99.90;;;;;;5070348;28;20241;-83
2021/08/04 04:32:01;;;;;;;7.15;6.47;;;18.40;99.90;;;;;;5071784;28;20206;-84
2021/08/04 04:34:28;;;;;;;7.13;5.60;;;18.30;99.90;;;;;;5070485;28;20263;-80
2021/08/04 04:36:55;;;;;;;5.78;5.18;;;18.20;99.90;;;;;;5075058;28;20624;-74
2021/08/04 04:39:22;;;;;;;6.82;5.53;;;18.30;99.90;;;;;;5075022;28;20214;-82
2021/08/04 04:41:49;;;;;;;6.00;5.43;;;18.30;99.90;;;;;;5080341;28;20202;-83
2021/08/04 04:44:16;;;;;;;6.53;5.50;;;18.30;99.90;;;;;;5077039;28;20647;-82
2021/08/04 04:46:43;;;;;;;7.88;5.88;;;18.20;99.90;;;;;;5079580;28;20208;-74
2021/08/04 04:49:11;;;;;;;8.32;5.95;;;18.30;99.90;;;;;;5078157;28;20230;-82
2021/08/04 04:51:38;;;;;;;8.15;5.97;;;18.30;99.90;;;;;;5082311;28;20205;-82
2021/08/04 04:54:05;;;;;;;6.35;5.72;;;18.30;99.90;;;;;;5080273;28;20248;-80
2021/08/04 04:56:32;;;;;;;5.15;4.70;;;18.30;99.90;;;;;;5080893;28;20673;-80
2021/08/04 04:58:59;;;;;;;7.40;5.82;;;18.30;99.90;;;;;;5082319;28;22072;-80
2021/08/04 05:01:26;;;;;;;6.05;5.45;;;18.20;99.90;;;;;;5079669;28;20665;-83
2021/08/04 05:03:52;;;;;;;5.93;5.10;;;18.30;99.90;;;;;;5080708;28;20270;-74
2021/08/04 05:06:21;;;;;;;6.72;6.00;;;18.30;99.90;;;;;;5080772;28;20203;-76
2021/08/04 05:08:48;;;;;;;6.38;5.22;;;18.20;99.90;;;;;;5086802;28;20275;-78
2021/08/04 05:11:15;;;;;;;7.60;5.00;;;18.10;99.90;;;;;;5072851;28;20198;-74
2021/08/04 05:13:42;;;;;;;7.45;5.40;;;18.10;99.90;;;;;;5079692;28;20206;-86
2021/08/04 05:16:09;;;;;;;7.65;4.93;;;18.10;99.90;;;;;;5083544;28;20280;-86
2021/08/04 05:18:36;;;;;;;10.15;5.68;;;18.20;99.90;;;;;;5087413;28;20213;-76
2021/08/04 05:21:02;;;;;;;7.50;5.78;;;18.20;99.90;;;;;;5088986;28;20210;-74
2021/08/04 05:23:31;;;;;;;7.20;5.53;;;18.30;99.90;;;;;;5074688;28;20202;-78
2021/08/04 05:25:58;;;;;;;4.90;4.50;;;18.20;99.90;;;;;;5072811;28;20202;-79
2021/08/04 05:28:25;;;;;;;6.63;4.93;;;18.30;99.90;;;;;;5072606;28;20214;-76
2021/08/04 05:30:52;;;;;;;5.90;5.03;;;18.20;99.90;;;;;;5071317;28;20259;-74
2021/08/04 05:33:19;;;;;;;6.47;4.90;;;18.20;99.90;;;;;;5072875;28;20259;-83
2021/08/04 05:35:46;;;;;;;5.57;5.03;;;18.30;99.90;;;;;;5074030;28;20202;-83
2021/08/04 05:38:13;;;;;;;7.80;6.45;;;18.40;99.90;;;;;;5073684;28;20260;-76
2021/08/04 05:40:41;;;;;;;6.63;5.53;;;18.40;99.90;;;;;;5074236;28;20754;-75
2021/08/04 05:43:08;;;;;;;6.65;6.05;;;18.30;99.90;;;;;;5075291;28;20562;-74
2021/08/04 05:45:37;;;;;;;6.38;5.78;;;18.40;99.90;;;;;;5076485;28;20202;-76
2021/08/04 05:48:04;;;;;;;7.78;6.03;;;18.40;99.90;;;;;;5075804;28;20210;-73
2021/08/04 05:50:32;;;;;;;6.55;5.35;;;18.50;99.90;;;;;;5074754;28;20292;-74
2021/08/04 05:52:59;;;;;;;7.60;5.90;;;18.50;99.90;;;;;;5075624;28;20233;-78
2021/08/04 05:55:26;;;;;;;6.28;5.72;;;18.50;99.90;;;;;;5080333;28;20213;-74
2021/08/04 05:57:54;;;;;;;6.72;5.57;;;18.60;99.90;;;;;;5073732;28;20267;-81
2021/08/04 06:00:21;;;;;;;7.05;5.68;;;18.60;99.90;;;;;;5082750;28;20683;-75
2021/08/04 06:02:48;;;;;;;6.93;6.22;;;18.60;99.90;;;;;;5077757;28;20614;-75
2021/08/04 06:05:15;;;;;;;9.98;6.57;;;18.60;99.90;;;;;;5081986;28;20619;-74
2021/08/04 06:07:43;;;;;;;7.35;6.65;;;18.60;99.90;;;;;;5079747;28;20210;-74
2021/08/04 06:10:11;;;;;;;7.00;6.30;;;18.60;99.90;;;;;;5071230;28;20284;-80
2021/08/04 06:12:38;;;;;;;8.25;7.05;;;18.50;99.90;;;;;;5064675;28;20206;-79
2021/08/04 06:15:08;;;;;;;6.65;6.00;;;18.60;99.90;;;;;;5074119;28;20210;-79
2021/08/04 06:17:35;;;;;;;8.70;7.30;;;18.50;99.90;;;;;;5076524;28;20206;-87
2021/08/04 06:20:02;;;;;;;8.05;7.20;;;18.50;99.90;;;;;;5075902;28;20258;-80
2021/08/04 06:22:29;;;;;;;7.63;6.82;;;18.40;99.90;;;;;;5091264;28;20262;-79
2021/08/04 06:24:56;;;;;;;8.20;6.70;;;18.40;99.90;;;;;;5076041;28;20210;-79
2021/08/04 06:27:23;;;;;;;8.82;7.47;;;18.50;99.90;;;;;;5072729;28;20222;-78
2021/08/04 06:29:50;;;;;;;7.30;6.60;;;18.60;99.90;;;;;;5073042;28;20291;-80
2021/08/04 06:32:18;;;;;;;9.82;6.22;;;18.60;99.90;;;;;;5073148;28;20210;-79
2021/08/04 06:34:45;;;;;;;18.50;7.47;;;18.60;99.90;;;;;;5074582;28;20255;-78
2021/08/04 06:37:12;;;;;;;8.30;6.88;;;18.60;99.90;;;;;;5073548;28;20206;-79
2021/08/04 06:39:39;;;;;;;6.22;5.63;;;18.50;99.90;;;;;;5074347;28;20685;-79
2021/08/04 06:42:06;;;;;;;7.70;5.88;;;18.50;99.90;;;;;;5076399;28;20240;-81
2021/08/04 06:44:33;;;;;;;6.72;5.65;;;18.50;99.90;;;;;;5075192;28;20239;-78
2021/08/04 06:47:01;;;;;;;5.97;5.38;;;18.50;99.90;;;;;;5079109;28;20673;-77
2021/08/04 06:49:29;;;;;;;5.68;4.78;;;18.50;99.90;;;;;;5076040;28;20272;-76
2021/08/04 06:51:56;;;;;;;8.32;5.85;;;18.50;99.90;;;;;;5066552;28;20206;-78
2021/08/04 06:54:25;;;;;;;6.97;4.95;;;18.50;99.90;;;;;;5070749;28;20696;-80
2021/08/04 06:56:52;;;;;;;6.32;5.07;;;18.50;99.90;;;;;;5067773;28;20209;-81
2021/08/04 06:59:19;;;;;;;4.90;4.43;;;18.60;99.90;;;;;;5069569;28;20635;-80
2021/08/04 07:01:46;;;;;;;5.25;4.75;;;18.50;99.90;;;;;;5081881;28;20201;-77
2021/08/04 07:04:14;;;;;;;5.32;4.82;;;18.40;99.90;;;;;;5072051;28;20256;-78
2021/08/04 07:06:52;;;;;;;4.78;4.38;;;18.50;99.90;;;;;;5070811;28;20214;-78
2021/08/04 07:09:19;;;;;;;6.82;5.25;;;18.60;99.90;;;;;;5069702;28;20626;-77
2021/08/04 07:11:46;;;;;;;5.25;4.75;;;18.70;99.90;;;;;;5071086;28;20260;-79
2021/08/04 07:14:15;;;;;;;5.93;4.93;;;19.00;99.90;;;;;;5070641;28;20210;-79
2021/08/04 07:16:42;;;;;;;4.93;3.97;;;19.20;99.90;;;;;;5070633;28;20206;-78
2021/08/04 07:19:10;;;;;;;4.57;4.13;;;19.10;99.90;;;;;;5070741;28;20264;-80
2021/08/04 07:21:37;;;;;;;4.18;3.80;;;19.20;99.90;;;;;;5087882;28;20580;-78
2021/08/04 07:24:06;;;;;;;4.07;3.67;;;19.30;99.90;;;;;;5091062;28;20271;-79
2021/08/04 07:26:33;;;;;;;4.07;3.78;;;19.60;99.90;;;;;;5085155;28;20214;-76
2021/08/04 07:29:00;;;;;;;5.75;3.78;;;20.10;99.90;;;;;;5077420;28;20251;-75
2021/08/04 07:31:28;;;;;;;4.75;3.75;;;20.50;99.90;;;;;;5069551;28;20202;-75
2021/08/04 07:33:55;;;;;;;3.38;3.08;;;20.30;99.90;;;;;;5070077;28;20203;-76
2021/08/04 07:36:22;;;;;;;4.85;3.80;;;20.00;99.90;;;;;;5072464;28;20263;-78
2021/08/04 07:38:49;;;;;;;3.35;3.05;;;19.90;99.90;;;;;;5073969;28;20206;-78
2021/08/04 07:41:18;;;;;;;3.20;3.00;;;19.80;99.90;;;;;;5068072;28;20268;-82
2021/08/04 07:43:45;;;;;;;3.70;3.40;;;19.80;99.90;;;;;;5069927;28;20206;-85
2021/08/04 07:46:13;;;;;;;3.05;2.75;;;20.00;99.90;;;;;;5067859;28;20204;-78
2021/08/04 07:48:40;;;;;;;3.47;3.17;;;20.00;99.90;;;;;;5076985;28;20293;-79
2021/08/04 07:51:07;;;;;;;3.13;2.72;;;20.10;99.90;;;;;;5074109;28;20283;-76
2021/08/04 07:53:34;;;;;;;3.47;3.15;;;20.30;99.90;;;;;;5079990;28;20247;-74
2021/08/04 07:56:01;;;;;;;4.35;3.15;;;20.20;99.90;;;;;;5075149;28;20289;-78
2021/08/04 07:58:29;;;;;;;3.63;3.22;;;19.80;99.90;;;;;;5076091;28;20263;-75
2021/08/04 08:00:56;;;;;;;3.22;2.92;;;19.70;99.90;;;;;;5076090;28;20578;-75
2021/08/04 08:03:23;;;;;;;6.25;3.28;;;19.50;99.90;;;;;;5076930;28;20297;-73
2021/08/04 08:05:50;;;;;;;3.28;2.97;;;19.50;99.90;;;;;;5077271;28;20256;-78
2021/08/04 08:08:17;;;;;;;3.10;2.80;;;19.50;99.90;;;;;;5079575;28;20202;-76
2021/08/04 08:10:49;;;;;;;3.22;2.63;;;19.40;99.90;;;;;;5082508;28;20236;-86
2021/08/04 08:13:17;;;;;;;2.85;2.55;;;19.50;99.90;;;;;;5081374;28;20288;-77
2021/08/04 08:15:45;;;;;;;3.65;2.45;;;19.30;99.90;;;;;;5079392;28;20206;-80
2021/08/04 08:18:14;;;;;;;1.90;1.80;;;19.20;99.90;;;;;;5085632;28;20281;-77
2021/08/04 08:20:42;;;;;;;3.10;1.75;;;19.40;99.90;;;;;;5089368;28;20665;-77
2021/08/04 08:23:09;;;;;;;4.25;2.72;;;19.40;99.90;;;;;;5074307;28;20267;-78
2021/08/04 08:25:37;;;;;;;3.15;2.10;;;19.40;99.90;;;;;;5074882;28;20260;-80
2021/08/04 08:28:05;;;;;;;2.53;2.33;;;19.30;99.90;;;;;;5075709;28;20263;-77
2021/08/04 08:30:33;;;;;;;3.42;2.58;;;19.20;99.90;;;;;;5075663;28;20237;-77
2021/08/04 08:33:01;;;;;;;3.00;2.42;;;19.20;99.90;;;;;;5076554;28;20281;-76
2021/08/04 08:35:30;;;;;;;4.28;2.42;;;19.20;99.90;;;;;;5077097;28;20669;-77
2021/08/04 08:37:57;;;;;;;6.32;3.65;;;19.20;99.90;;;;;;5072920;28;20210;-78
2021/08/04 08:40:24;;;;;;;4.20;3.58;;;19.30;99.90;;;;;;5080125;28;20739;-75
2021/08/04 08:42:52;;;;;;;2.70;2.50;;;19.30;99.90;;;;;;5074418;28;20213;-77
2021/08/04 08:45:19;;;;;;;2.92;2.33;;;19.50;99.90;;;;;;5083717;28;20598;-75
2021/08/04 08:47:47;;;;;;;2.83;2.50;;;19.60;99.90;;;;;;5081512;28;20287;-74
2021/08/04 08:50:22;;;;;;;2.58;2.38;;;19.60;99.90;;;;;;5084613;28;20237;-78
2021/08/04 08:52:49;;;;;;;2.53;2.33;;;19.30;99.90;;;;;;5074695;28;20208;-80
2021/08/04 08:55:16;;;;;;;2.05;1.90;;;19.20;99.90;;;;;;5087598;28;20201;-71
2021/08/04 08:57:43;;;;;;;3.05;2.75;;;19.20;99.90;;;;;;5065587;28;20206;-81
2021/08/04 09:00:11;;;;;;;2.95;2.75;;;19.20;99.90;;;;;;5086768;28;20259;-74
2021/08/04 09:02:42;;;;;;;2.70;2.50;;;19.30;99.90;;;;;;5085138;28;20279;-76
2021/08/04 09:05:11;;;;;;;3.13;2.60;;;19.40;99.90;;;;;;5089612;28;20193;-76
2021/08/04 09:07:41;;;;;;;2.45;2.08;;;19.60;99.90;;;;;;5085702;28;20206;-75
2021/08/04 09:10:35;;;;;;;2.25;1.92;;;19.80;99.90;;;;;;5077645;28;20222;-78
2021/08/04 09:13:05;;;;;;;2.55;2.35;;;20.20;99.90;;;;;;5065821;28;20206;-75
2021/08/04 09:15:35;;;;;;;3.25;2.45;;;20.20;99.90;;;;;;5077645;28;20260;-69
2021/08/04 09:18:05;;;;;;;1.80;1.70;;;20.00;99.90;;;;;;5073001;28;20259;-82
2021/08/04 09:20:45;;;;;;;2.38;2.10;;;19.80;99.90;;;;;;5079215;28;20754;-82
2021/08/04 09:23:16;;;;;;;3.03;2.33;;;20.00;99.90;;;;;;5071587;28;20209;-77
2021/08/04 09:26:01;;;;;;;4.03;2.70;;;19.90;99.90;;;;;;5066314;28;20242;-74
2021/08/04 09:28:29;;;;;;;2.75;2.13;;;19.90;99.90;;;;;;5069424;28;20214;-73
2021/08/04 09:31:01;;;;;;;2.78;2.53;;;19.80;99.90;;;;;;5073143;28;20291;-73
2021/08/04 09:33:36;;;;;;;2.72;2.45;;;19.60;99.90;;;;;;5072525;28;20297;-75
2021/08/04 09:36:04;;;;;;;2.45;2.25;;;19.30;99.90;;;;;;5071139;28;20201;-80
2021/08/04 09:38:32;;;;;;;2.63;2.40;;;19.30;99.90;;;;;;5074083;28;20262;-79
2021/08/04 09:41:15;;;;;;;2.47;2.28;;;19.40;99.90;;;;;;5066700;28;20237;-75
2021/08/04 09:43:44;;;;;;;3.53;2.67;;;19.70;99.90;;;;;;5065055;28;20689;-81
2021/08/04 09:46:22;;;;;;;2.97;2.10;;;19.70;99.90;;;;;;5074559;28;20206;-79
2021/08/04 09:48:49;;;;;;;2.90;1.90;;;19.70;99.90;;;;;;5072847;28;20202;-81
2021/08/04 09:51:19;;;;;;;2.33;2.13;;;19.80;99.90;;;;;;5071817;28;20769;-79
2021/08/04 09:53:49;;;;;;;2.65;2.45;;;20.00;99.90;;;;;;5075794;28;20786;-74
2021/08/04 09:56:18;;;;;;;2.22;2.03;;;20.00;99.90;;;;;;5073976;28;20568;-80
2021/08/04 09:58:48;;;;;;;2.20;2.00;;;20.30;99.90;;;;;;5080747;28;20264;-73
2021/08/04 10:01:16;;;;;;;2.95;2.65;;;20.30;99.90;;;;;;5069023;28;20206;-74
2021/08/04 10:04:02;;;;;;;2.72;2.53;;;20.20;99.90;;;;;;5069385;28;20271;-79
2021/08/04 10:06:29;;;;;;;2.97;1.88;;;20.10;99.90;;;;;;5070895;28;20243;-81
2021/08/04 10:09:00;;;;;;;1.67;1.58;;;20.00;99.90;;;;;;5065603;28;20218;-76
2021/08/04 10:11:28;;;;;;;2.53;1.95;;;20.00;99.90;;;;;;5069400;28;20241;-80
2021/08/04 10:13:57;;;;;;;1.75;1.65;;;20.10;99.90;;;;;;5070008;28;20206;-75
2021/08/04 10:16:25;;;;;;;1.90;1.80;;;20.40;99.90;;;;;;5068313;28;20276;-74
2021/08/04 10:18:55;;;;;;;3.17;2.20;;;20.70;99.90;;;;;;5070350;28;20260;-71
2021/08/04 10:21:22;;;;;;;3.30;1.60;;;21.30;99.90;;;;;;5070410;28;20206;-71
2021/08/04 10:23:52;;;;;;;2.08;1.88;;;21.40;99.90;;;;;;5070844;28;20210;-71
2021/08/04 10:26:22;;;;;;;1.77;1.67;;;21.50;99.90;;;;;;5075105;28;20580;-71
2021/08/04 10:28:55;;;;;;;1.90;1.73;;;21.50;99.90;;;;;;5074389;28;20202;-71
2021/08/04 10:31:22;;;;;;;2.65;2.20;;;21.50;99.90;;;;;;5076767;28;20237;-70
2021/08/04 10:33:49;;;;;;;2.10;1.90;;;21.90;99.90;;;;;;5075376;28;20202;-71
2021/08/04 10:36:19;;;;;;;2.35;1.98;;;22.00;99.90;;;;;;5070696;28;20210;-71
2021/08/04 10:38:48;;;;;;;1.73;1.60;;;22.30;99.90;;;;;;5067267;28;20562;-73
2021/08/04 10:41:17;;;;;;;2.45;2.08;;;22.30;99.90;;;;;;5065091;28;20206;-73
2021/08/04 10:43:48;;;;;;;2.42;2.15;;;22.30;99.90;;;;;;5066716;28;20249;-74
2021/08/04 10:46:38;;;;;;;2.30;2.10;;;22.20;99.90;;;;;;5067882;28;20709;-73
2021/08/04 10:49:27;;;;;;;1.70;1.60;;;22.10;99.90;;;;;;5072853;28;20285;-72
2021/08/04 10:52:15;;;;;;;4.10;1.70;;;22.10;99.90;;;;;;5089578;28;20237;-72
2021/08/04 10:55:11;;;;;;;2.47;2.28;;;22.00;99.90;;;;;;5059122;28;20298;-71
2021/08/04 10:58:19;;;;;;;2.90;2.20;;;22.20;99.90;;;;;;5070851;28;20204;-68
2021/08/04 11:00:48;;;;;;;1.77;1.67;;;22.50;99.90;;;;;;5070949;28;20214;-71
2021/08/04 11:03:47;;;;;;;1.67;1.58;;;23.00;99.90;;;;;;5070790;28;20210;-70
2021/08/04 11:06:14;;;;;;;5.40;1.48;;;23.40;99.90;;;;;;5069794;28;20285;-69
2021/08/04 11:08:47;;;;;;;1.95;1.75;;;23.70;99.90;;;;;;5071067;28;20693;-68
2021/08/04 11:11:47;;;;;;;3.75;3.22;;;23.70;99.90;;;;;;5070208;28;20258;-71
2021/08/04 11:14:37;;;;;;;2.30;2.10;;;24.30;99.90;;;;;;5069820;28;20213;-74
2021/08/04 11:17:07;;;;;;;1.20;1.10;;;23.90;99.90;;;;;;5070702;28;20298;-71
2021/08/04 11:20:04;;;;;;;2.10;1.30;;;24.20;99.90;;;;;;5070737;28;20287;-71
2021/08/04 11:22:41;;;;;;;1.67;1.58;;;24.40;99.90;;;;;;5090807;28;20208;-72
2021/08/04 11:25:10;;;;;;;1.10;1.08;;;24.50;99.90;;;;;;5071481;28;20661;-69
2021/08/04 11:27:59;;;;;;;2.08;1.33;;;24.90;99.90;;;;;;5069727;28;20222;-71
2021/08/04 11:30:29;;;;;;;1.50;1.20;;;25.00;99.90;;;;;;5070074;28;20206;-70
2021/08/04 11:33:31;;;;;;;1.30;1.20;;;24.40;99.90;;;;;;5070449;28;20203;-68
2021/08/04 11:36:15;;;;;;;1.23;1.13;;;23.90;99.90;;;;;;5059191;28;20257;-68
2021/08/04 11:38:49;;;;;;;1.13;1.02;;;24.00;99.90;;;;;;5067560;28;20753;-73
2021/08/04 11:41:20;;;;;;;1.65;1.10;;;24.30;99.90;;;;;;5068386;28;20210;-75
2021/08/04 11:43:48;;;;;;;7.13;1.45;;;25.00;99.90;;;;;;5068183;28;20257;-69
2021/08/04 11:46:35;;;;;;;1.60;1.13;;;25.30;99.90;;;;;;5063736;28;20727;-70
2021/08/04 11:49:06;;;;;;;0.77;0.77;;;24.50;99.90;;;;;;5066700;28;20248;-71
2021/08/04 11:51:43;;;;;;;1.15;1.00;;;23.70;99.90;;;;;;5066787;28;20271;-72
2021/08/04 11:54:11;;;;;;;3.22;1.50;;;22.90;99.90;;;;;;5066685;28;20247;-75
2021/08/04 11:56:46;;;;;;;2.53;1.00;;;21.70;99.90;;;;;;5068157;28;20198;-82
2021/08/04 11:59:14;;;;;;;1.83;1.05;;;20.50;99.90;;;;;;5066760;28;20206;-82
2021/08/04 12:01:53;;;;;;;2.30;1.20;;;20.20;99.90;;;;;;5066107;28;20263;-85
2021/08/04 12:04:21;;;;;;;1.30;0.82;;;20.00;99.90;;;;;;5067601;28;20271;-79
2021/08/04 12:07:01;;;;;;;2.17;0.98;;;20.00;99.90;;;;;;5068962;28;20210;-79
2021/08/04 12:09:30;;;;;;;4.82;1.38;;;19.90;99.90;;;;;;5067338;28;20786;-81
2021/08/04 12:11:58;;;;;;;2.58;1.10;;;20.10;99.90;;;;;;5065532;28;20241;-82
2021/08/04 12:14:26;;;;;;;3.92;1.27;;;20.40;99.90;;;;;;5067480;28;20202;-77
2021/08/04 12:16:55;;;;;;;3.13;1.48;;;20.80;99.90;;;;;;5067765;28;20259;-77
2021/08/04 12:19:36;;;;;;;1.55;1.13;;;21.40;99.90;;;;;;5069360;28;20677;-77
2021/08/04 12:22:05;;;;;;;1.65;1.27;;;22.60;99.90;;;;;;5076760;28;20209;-72
2021/08/04 12:24:40;;;;;;;2.05;1.33;;;23.20;99.90;;;;;;5081278;28;20256;-70
2021/08/04 12:27:07;;;;;;;2.17;1.52;;;23.00;99.90;;;;;;5056402;28;20209;-75
2021/08/04 12:29:34;;;;;;;1.95;1.73;;;22.80;99.90;;;;;;5071333;28;20210;-74
2021/08/04 12:32:04;;;;;;;2.42;1.38;;;22.50;99.90;;;;;;5088291;28;20302;-73
2021/08/04 12:34:42;;;;;;;1.30;1.10;;;22.70;99.90;;;;;;5076496;28;20198;-75
2021/08/04 12:37:09;;;;;;;1.52;1.42;;;22.80;99.90;;;;;;5075588;28;20749;-75
2021/08/04 12:39:37;;;;;;;1.40;1.30;;;22.90;99.90;;;;;;5067085;28;20260;-74
2021/08/04 12:42:05;;;;;;;2.05;0.90;;;23.00;99.90;;;;;;5067222;28;20202;-75
2021/08/04 12:44:32;;;;;;;1.40;1.30;;;23.30;99.90;;;;;;5066037;28;20255;-75
2021/08/04 12:46:59;;;;;;;2.58;1.13;;;23.30;99.90;;;;;;5065638;28;20202;-76
2021/08/04 12:49:28;;;;;;;1.80;1.27;;;22.90;99.90;;;;;;5062094;28;20678;-75
2021/08/04 12:51:58;;;;;;;1.52;1.10;;;22.60;99.90;;;;;;5068128;28;20229;-76
2021/08/04 12:54:29;;;;;;;0.93;0.93;;;22.40;99.90;;;;;;5064982;28;20674;-75
2021/08/04 12:56:57;;;;;;;3.08;1.83;;;22.20;99.90;;;;;;5065369;28;20207;-73
2021/08/04 12:59:24;;;;;;;2.13;1.60;;;22.70;99.90;;;;;;5064287;28;20237;-73